Terminal Aerodrome Forecast
Issued by NWS Duluth, MN

Home | Current Version | Previous Version | Text Only | Print | Product List | Glossary On
Versions: 1 2 3 4 5 6 7 8 9 10 11 12 13 14 15 16 17
259
FTUS43 KDLH 302337
TAFDLH
TAF
KDLH 302337Z 0100/0124 07018G28KT P6SM VCSH OVC070
     FM010500 07016G26KT P6SM -RASN OVC035
     FM010800 06020G27KT 4SM -RASN OVC020
     FM011000 05020G27KT 2SM -SN OVC012
     FM011500 05020G30KT 1 1/2SM RASN SCT004 OVC007=

USA.gov is the U.S. government's official web portal to all federal, state and local government web resources and services.